sensor_id;sensor_type;location;lat;lon;timestamp;temperature;humidity
44190;DHT22;29856;52.144;5.430;2023-02-15T00:00:11;6.70;99.90
44190;DHT22;29856;52.144;5.430;2023-02-15T00:02:36;6.30;99.90
44190;DHT22;29856;52.144;5.430;2023-02-15T00:05:02;6.00;99.90
44190;DHT22;29856;52.144;5.430;2023-02-15T00:07:28;5.80;99.90
44190;DHT22;29856;52.144;5.430;2023-02-15T00:09:53;5.90;99.90
44190;DHT22;29856;52.144;5.430;2023-02-15T00:12:19;5.80;99.90
44190;DHT22;29856;52.144;5.430;2023-02-15T00:14:47;5.80;99.90
44190;DHT22;29856;52.144;5.430;2023-02-15T00:17:12;5.60;99.90
44190;DHT22;29856;52.144;5.430;2023-02-15T00:19:38;5.40;99.90
44190;DHT22;29856;52.144;5.430;2023-02-15T00:22:04;5.70;99.90
44190;DHT22;29856;52.144;5.430;2023-02-15T00:24:29;6.00;99.90
44190;DHT22;29856;52.144;5.430;2023-02-15T00:26:55;5.50;99.90
44190;DHT22;29856;52.144;5.430;2023-02-15T00:29:21;5.30;99.90
44190;DHT22;29856;52.144;5.430;2023-02-15T00:31:47;5.20;99.90
44190;DHT22;29856;52.144;5.430;2023-02-15T00:34:15;5.50;99.90
44190;DHT22;29856;52.144;5.430;2023-02-15T00:36:43;5.80;99.90
44190;DHT22;29856;52.144;5.430;2023-02-15T00:39:09;6.00;99.90
44190;DHT22;29856;52.144;5.430;2023-02-15T00:41:35;5.60;99.90
44190;DHT22;29856;52.144;5.430;2023-02-15T00:44:01;5.30;99.90
44190;DHT22;29856;52.144;5.430;2023-02-15T00:46:26;5.20;99.90
44190;DHT22;29856;52.144;5.430;2023-02-15T00:48:52;5.30;99.90
44190;DHT22;29856;52.144;5.430;2023-02-15T00:51:17;5.20;99.90
44190;DHT22;29856;52.144;5.430;2023-02-15T00:53:43;5.60;99.90
44190;DHT22;29856;52.144;5.430;2023-02-15T00:56:09;5.80;99.90
44190;DHT22;29856;52.144;5.430;2023-02-15T00:58:35;6.00;99.90
44190;DHT22;29856;52.144;5.430;2023-02-15T01:01:06;6.00;99.90
44190;DHT22;29856;52.144;5.430;2023-02-15T01:03:32;5.90;99.90
44190;DHT22;29856;52.144;5.430;2023-02-15T01:05:58;6.00;99.90
44190;DHT22;29856;52.144;5.430;2023-02-15T01:08:24;6.20;99.90
44190;DHT22;29856;52.144;5.430;2023-02-15T01:10:50;6.20;99.90
44190;DHT22;29856;52.144;5.430;2023-02-15T01:13:16;6.30;99.90
44190;DHT22;29856;52.144;5.430;2023-02-15T01:15:43;6.30;99.90
44190;DHT22;29856;52.144;5.430;2023-02-15T01:18:09;6.10;99.90
44190;DHT22;29856;52.144;5.430;2023-02-15T01:20:38;5.90;99.90
44190;DHT22;29856;52.144;5.430;2023-02-15T01:23:04;6.00;99.90
44190;DHT22;29856;52.144;5.430;2023-02-15T01:25:29;6.20;99.90
44190;DHT22;29856;52.144;5.430;2023-02-15T01:27:55;6.40;99.90
44190;DHT22;29856;52.144;5.430;2023-02-15T01:30:20;5.90;99.90
44190;DHT22;29856;52.144;5.430;2023-02-15T01:32:46;5.60;99.90
44190;DHT22;29856;52.144;5.430;2023-02-15T01:35:11;5.60;99.90
44190;DHT22;29856;52.144;5.430;2023-02-15T01:37:37;5.60;99.90
44190;DHT22;29856;52.144;5.430;2023-02-15T01:40:06;5.50;99.90
44190;DHT22;29856;52.144;5.430;2023-02-15T01:42:32;5.50;99.90
44190;DHT22;29856;52.144;5.430;2023-02-15T01:45:00;5.80;99.90
44190;DHT22;29856;52.144;5.430;2023-02-15T01:47:40;5.80;99.90
44190;DHT22;29856;52.144;5.430;2023-02-15T01:56:19;6.10;99.90
44190;DHT22;29856;52.144;5.430;2023-02-15T01:58:46;5.60;99.90
44190;DHT22;29856;52.144;5.430;2023-02-15T02:01:12;5.30;99.90
44190;DHT22;29856;52.144;5.430;2023-02-15T02:04:17;5.30;99.90
44190;DHT22;29856;52.144;5.430;2023-02-15T02:06:46;5.20;99.90
44190;DHT22;29856;52.144;5.430;2023-02-15T02:09:13;5.40;99.90
44190;DHT22;29856;52.144;5.430;2023-02-15T02:11:40;5.50;99.90
44190;DHT22;29856;52.144;5.430;2023-02-15T02:14:07;5.70;99.90
44190;DHT22;29856;52.144;5.430;2023-02-15T02:16:52;5.80;99.90
44190;DHT22;29856;52.144;5.430;2023-02-15T02:25:22;5.80;99.90
44190;DHT22;29856;52.144;5.430;2023-02-15T02:27:49;5.80;99.90
44190;DHT22;29856;52.144;5.430;2023-02-15T02:30:48;5.80;99.90
44190;DHT22;29856;52.144;5.430;2023-02-15T02:33:27;5.80;99.90
44190;DHT22;29856;52.144;5.430;2023-02-15T02:44:16;5.60;99.90
44190;DHT22;29856;52.144;5.430;2023-02-15T02:46:54;5.60;99.90
44190;DHT22;29856;52.144;5.430;2023-02-15T02:49:36;5.60;99.90
44190;DHT22;29856;52.144;5.430;2023-02-15T02:52:31;5.60;99.90
44190;DHT22;29856;52.144;5.430;2023-02-15T02:54:51;5.60;99.90
44190;DHT22;29856;52.144;5.430;2023-02-15T02:57:18;5.30;99.90
44190;DHT22;29856;52.144;5.430;2023-02-15T02:59:45;4.90;99.90
44190;DHT22;29856;52.144;5.430;2023-02-15T03:02:19;4.60;99.90
44190;DHT22;29856;52.144;5.430;2023-02-15T03:04:49;4.80;99.90
44190;DHT22;29856;52.144;5.430;2023-02-15T03:07:19;5.10;99.90
44190;DHT22;29856;52.144;5.430;2023-02-15T03:09:51;5.10;99.90
44190;DHT22;29856;52.144;5.430;2023-02-15T03:12:30;5.30;99.90
44190;DHT22;29856;52.144;5.430;2023-02-15T03:15:03;5.70;99.90
44190;DHT22;29856;52.144;5.430;2023-02-15T03:17:32;5.90;99.90
44190;DHT22;29856;52.144;5.430;2023-02-15T03:20:03;5.80;99.90
44190;DHT22;29856;52.144;5.430;2023-02-15T03:22:41;5.40;99.90
44190;DHT22;29856;52.144;5.430;2023-02-15T03:25:21;5.50;99.90
44190;DHT22;29856;52.144;5.430;2023-02-15T03:27:52;5.70;99.90
44190;DHT22;29856;52.144;5.430;2023-02-15T03:30:21;5.90;99.90
44190;DHT22;29856;52.144;5.430;2023-02-15T03:32:47;6.00;99.90
44190;DHT22;29856;52.144;5.430;2023-02-15T03:35:15;5.90;99.90
44190;DHT22;29856;52.144;5.430;2023-02-15T03:37:43;5.90;99.90
44190;DHT22;29856;52.144;5.430;2023-02-15T03:42:42;6.00;99.90
44190;DHT22;29856;52.144;5.430;2023-02-15T03:45:15;6.20;99.90
44190;DHT22;29856;52.144;5.430;2023-02-15T03:47:46;6.20;99.90
44190;DHT22;29856;52.144;5.430;2023-02-15T03:50:22;6.10;99.90
44190;DHT22;29856;52.144;5.430;2023-02-15T03:52:50;6.30;99.90
44190;DHT22;29856;52.144;5.430;2023-02-15T03:55:15;6.40;99.90
44190;DHT22;29856;52.144;5.430;2023-02-15T03:57:41;6.30;99.90
44190;DHT22;29856;52.144;5.430;2023-02-15T04:00:22;6.20;99.90
44190;DHT22;29856;52.144;5.430;2023-02-15T04:05:26;6.30;99.90
44190;DHT22;29856;52.144;5.430;2023-02-15T04:07:51;6.40;99.90
44190;DHT22;29856;52.144;5.430;2023-02-15T04:10:17;6.50;99.90
44190;DHT22;29856;52.144;5.430;2023-02-15T04:12:42;6.10;99.90
44190;DHT22;29856;52.144;5.430;2023-02-15T04:15:12;6.00;99.90
44190;DHT22;29856;52.144;5.430;2023-02-15T04:17:37;6.20;99.90
44190;DHT22;29856;52.144;5.430;2023-02-15T04:20:03;6.10;99.90
44190;DHT22;29856;52.144;5.430;2023-02-15T04:22:29;6.10;99.90
44190;DHT22;29856;52.144;5.430;2023-02-15T04:24:54;6.10;99.90
44190;DHT22;29856;52.144;5.430;2023-02-15T04:27:20;6.00;99.90
44190;DHT22;29856;52.144;5.430;2023-02-15T04:29:45;6.10;99.90
44190;DHT22;29856;52.144;5.430;2023-02-15T04:32:11;5.90;99.90
44190;DHT22;29856;52.144;5.430;2023-02-15T04:34:36;6.00;99.90
44190;DHT22;29856;52.144;5.430;2023-02-15T04:37:01;6.10;99.90
44190;DHT22;29856;52.144;5.430;2023-02-15T04:39:27;6.10;99.90
44190;DHT22;29856;52.144;5.430;2023-02-15T04:41:52;6.20;99.90
44190;DHT22;29856;52.144;5.430;2023-02-15T04:44:18;6.30;99.90
44190;DHT22;29856;52.144;5.430;2023-02-15T04:46:43;5.90;99.90
44190;DHT22;29856;52.144;5.430;2023-02-15T04:49:09;5.40;99.90
44190;DHT22;29856;52.144;5.430;2023-02-15T04:51:34;5.40;99.90
44190;DHT22;29856;52.144;5.430;2023-02-15T04:54:00;5.40;99.90
44190;DHT22;29856;52.144;5.430;2023-02-15T04:56:25;5.00;99.90
44190;DHT22;29856;52.144;5.430;2023-02-15T04:58:51;4.80;99.90
44190;DHT22;29856;52.144;5.430;2023-02-15T05:01:16;5.00;99.90
44190;DHT22;29856;52.144;5.430;2023-02-15T05:03:42;4.90;99.90
44190;DHT22;29856;52.144;5.430;2023-02-15T05:06:07;5.20;99.90
44190;DHT22;29856;52.144;5.430;2023-02-15T05:08:33;5.40;99.90
44190;DHT22;29856;52.144;5.430;2023-02-15T05:10:58;5.20;99.90
44190;DHT22;29856;52.144;5.430;2023-02-15T05:13:24;5.20;99.90
44190;DHT22;29856;52.144;5.430;2023-02-15T05:15:51;5.40;99.90
44190;DHT22;29856;52.144;5.430;2023-02-15T05:18:18;5.40;99.90
44190;DHT22;29856;52.144;5.430;2023-02-15T05:20:44;5.50;99.90
44190;DHT22;29856;52.144;5.430;2023-02-15T05:23:10;5.60;99.90
44190;DHT22;29856;52.144;5.430;2023-02-15T05:25:35;5.40;99.90
44190;DHT22;29856;52.144;5.430;2023-02-15T05:28:01;5.40;99.90
44190;DHT22;29856;52.144;5.430;2023-02-15T05:30:26;5.40;99.90
44190;DHT22;29856;52.144;5.430;2023-02-15T05:32:52;5.70;99.90
44190;DHT22;29856;52.144;5.430;2023-02-15T05:35:17;5.80;99.90
44190;DHT22;29856;52.144;5.430;2023-02-15T05:37:43;5.70;99.90
44190;DHT22;29856;52.144;5.430;2023-02-15T05:40:09;5.70;99.90
44190;DHT22;29856;52.144;5.430;2023-02-15T05:42:34;5.90;99.90
44190;DHT22;29856;52.144;5.430;2023-02-15T05:45:00;5.80;99.90
44190;DHT22;29856;52.144;5.430;2023-02-15T05:47:25;5.50;99.90
44190;DHT22;29856;52.144;5.430;2023-02-15T05:49:51;5.10;99.90
44190;DHT22;29856;52.144;5.430;2023-02-15T05:52:16;5.10;99.90
44190;DHT22;29856;52.144;5.430;2023-02-15T05:54:42;5.00;99.90
44190;DHT22;29856;52.144;5.430;2023-02-15T05:57:07;4.80;99.90
44190;DHT22;29856;52.144;5.430;2023-02-15T05:59:33;4.90;99.90
44190;DHT22;29856;52.144;5.430;2023-02-15T06:01:58;5.00;99.90
44190;DHT22;29856;52.144;5.430;2023-02-15T06:04:24;5.00;99.90
44190;DHT22;29856;52.144;5.430;2023-02-15T06:06:49;5.00;99.90
44190;DHT22;29856;52.144;5.430;2023-02-15T06:09:15;4.90;99.90
44190;DHT22;29856;52.144;5.430;2023-02-15T06:11:40;4.90;99.90
44190;DHT22;29856;52.144;5.430;2023-02-15T06:14:06;5.30;99.90
44190;DHT22;29856;52.144;5.430;2023-02-15T06:16:31;5.20;99.90
44190;DHT22;29856;52.144;5.430;2023-02-15T06:18:57;5.00;99.90
44190;DHT22;29856;52.144;5.430;2023-02-15T06:24:04;4.70;99.90
44190;DHT22;29856;52.144;5.430;2023-02-15T06:26:29;5.00;99.90
44190;DHT22;29856;52.144;5.430;2023-02-15T06:28:55;4.90;99.90
44190;DHT22;29856;52.144;5.430;2023-02-15T06:31:20;4.90;99.90
44190;DHT22;29856;52.144;5.430;2023-02-15T06:33:46;5.20;99.90
44190;DHT22;29856;52.144;5.430;2023-02-15T06:36:11;5.30;99.90
44190;DHT22;29856;52.144;5.430;2023-02-15T06:38:37;5.30;99.90
44190;DHT22;29856;52.144;5.430;2023-02-15T06:41:02;5.30;99.90
44190;DHT22;29856;52.144;5.430;2023-02-15T06:43:28;5.20;99.90
44190;DHT22;29856;52.144;5.430;2023-02-15T06:45:53;5.10;99.90
44190;DHT22;29856;52.144;5.430;2023-02-15T06:48:18;5.30;99.90
44190;DHT22;29856;52.144;5.430;2023-02-15T06:50:44;5.30;99.90
44190;DHT22;29856;52.144;5.430;2023-02-15T06:53:09;5.30;99.90
44190;DHT22;29856;52.144;5.430;2023-02-15T06:55:35;5.30;99.90
44190;DHT22;29856;52.144;5.430;2023-02-15T06:58:00;5.50;99.90
44190;DHT22;29856;52.144;5.430;2023-02-15T07:00:26;5.60;99.90
44190;DHT22;29856;52.144;5.430;2023-02-15T07:02:55;5.50;99.90
44190;DHT22;29856;52.144;5.430;2023-02-15T07:05:22;5.40;99.90
44190;DHT22;29856;52.144;5.430;2023-02-15T07:07:48;5.10;99.90
44190;DHT22;29856;52.144;5.430;2023-02-15T07:10:13;5.30;99.90
44190;DHT22;29856;52.144;5.430;2023-02-15T07:12:39;5.50;99.90
44190;DHT22;29856;52.144;5.430;2023-02-15T07:15:04;5.60;99.90
44190;DHT22;29856;52.144;5.430;2023-02-15T07:17:30;5.80;99.90
44190;DHT22;29856;52.144;5.430;2023-02-15T07:19:56;5.80;99.90
44190;DHT22;29856;52.144;5.430;2023-02-15T07:22:21;5.70;99.90
44190;DHT22;29856;52.144;5.430;2023-02-15T07:24:47;5.60;99.90
44190;DHT22;29856;52.144;5.430;2023-02-15T07:27:12;5.50;99.90
44190;DHT22;29856;52.144;5.430;2023-02-15T07:29:37;5.50;99.90
44190;DHT22;29856;52.144;5.430;2023-02-15T07:32:03;5.60;99.90
44190;DHT22;29856;52.144;5.430;2023-02-15T07:34:28;5.60;99.90
44190;DHT22;29856;52.144;5.430;2023-02-15T07:36:54;5.40;99.90
44190;DHT22;29856;52.144;5.430;2023-02-15T07:39:20;5.20;99.90
44190;DHT22;29856;52.144;5.430;2023-02-15T07:41:45;5.30;99.90
44190;DHT22;29856;52.144;5.430;2023-02-15T07:44:12;5.40;99.90
44190;DHT22;29856;52.144;5.430;2023-02-15T07:46:37;5.40;99.90
44190;DHT22;29856;52.144;5.430;2023-02-15T07:49:03;5.30;99.90
44190;DHT22;29856;52.144;5.430;2023-02-15T07:51:28;5.50;99.90
44190;DHT22;29856;52.144;5.430;2023-02-15T07:53:53;5.70;99.90
44190;DHT22;29856;52.144;5.430;2023-02-15T07:56:19;5.80;99.90
44190;DHT22;29856;52.144;5.430;2023-02-15T07:58:44;5.90;99.90
44190;DHT22;29856;52.144;5.430;2023-02-15T08:01:10;5.70;99.90
44190;DHT22;29856;52.144;5.430;2023-02-15T08:03:35;5.60;99.90
44190;DHT22;29856;52.144;5.430;2023-02-15T08:06:01;5.50;99.90
44190;DHT22;29856;52.144;5.430;2023-02-15T08:08:26;5.40;99.90
44190;DHT22;29856;52.144;5.430;2023-02-15T08:10:52;5.60;99.90
44190;DHT22;29856;52.144;5.430;2023-02-15T08:13:17;5.60;99.90
44190;DHT22;29856;52.144;5.430;2023-02-15T08:15:50;5.70;99.90
44190;DHT22;29856;52.144;5.430;2023-02-15T08:18:15;5.70;99.90
44190;DHT22;29856;52.144;5.430;2023-02-15T08:20:41;5.70;99.90
44190;DHT22;29856;52.144;5.430;2023-02-15T08:23:06;5.70;99.90
44190;DHT22;29856;52.144;5.430;2023-02-15T08:25:32;5.70;99.90
44190;DHT22;29856;52.144;5.430;2023-02-15T08:27:57;5.80;99.90
44190;DHT22;29856;52.144;5.430;2023-02-15T08:30:23;6.00;99.90
44190;DHT22;29856;52.144;5.430;2023-02-15T08:32:51;6.00;99.90
44190;DHT22;29856;52.144;5.430;2023-02-15T08:35:17;6.20;99.90
44190;DHT22;29856;52.144;5.430;2023-02-15T08:37:42;6.20;99.90
44190;DHT22;29856;52.144;5.430;2023-02-15T08:40:08;6.00;99.90
44190;DHT22;29856;52.144;5.430;2023-02-15T08:42:34;6.30;99.90
44190;DHT22;29856;52.144;5.430;2023-02-15T08:45:00;6.30;99.90
44190;DHT22;29856;52.144;5.430;2023-02-15T08:47:25;6.30;99.90
44190;DHT22;29856;52.144;5.430;2023-02-15T08:49:51;6.30;99.90
44190;DHT22;29856;52.144;5.430;2023-02-15T08:52:19;6.20;99.90
44190;DHT22;29856;52.144;5.430;2023-02-15T08:54:45;6.30;99.90
44190;DHT22;29856;52.144;5.430;2023-02-15T08:57:10;6.20;99.90
44190;DHT22;29856;52.144;5.430;2023-02-15T08:59:35;6.30;99.90
44190;DHT22;29856;52.144;5.430;2023-02-15T09:02:01;6.20;99.90
44190;DHT22;29856;52.144;5.430;2023-02-15T09:04:26;6.20;99.90
44190;DHT22;29856;52.144;5.430;2023-02-15T09:06:52;6.20;99.90
44190;DHT22;29856;52.144;5.430;2023-02-15T09:09:19;6.20;99.90
44190;DHT22;29856;52.144;5.430;2023-02-15T09:11:46;6.10;99.90
44190;DHT22;29856;52.144;5.430;2023-02-15T09:14:20;6.10;99.90
44190;DHT22;29856;52.144;5.430;2023-02-15T09:16:46;6.20;99.90
44190;DHT22;29856;52.144;5.430;2023-02-15T09:19:12;6.30;99.90
44190;DHT22;29856;52.144;5.430;2023-02-15T09:21:38;6.50;99.90
44190;DHT22;29856;52.144;5.430;2023-02-15T09:24:09;6.40;99.90
44190;DHT22;29856;52.144;5.430;2023-02-15T09:26:37;6.50;99.90
44190;DHT22;29856;52.144;5.430;2023-02-15T09:29:03;6.70;99.90
44190;DHT22;29856;52.144;5.430;2023-02-15T09:31:44;6.80;99.90
44190;DHT22;29856;52.144;5.430;2023-02-15T09:34:13;6.90;99.90
44190;DHT22;29856;52.144;5.430;2023-02-15T09:36:39;7.00;99.90
44190;DHT22;29856;52.144;5.430;2023-02-15T09:39:11;7.00;99.90
44190;DHT22;29856;52.144;5.430;2023-02-15T10:10:11;7.90;99.90
44190;DHT22;29856;52.144;5.430;2023-02-15T10:15:53;7.90;99.90
44190;DHT22;29856;52.144;5.430;2023-02-15T10:26:22;8.20;99.90
44190;DHT22;29856;52.144;5.430;2023-02-15T10:28:54;8.20;99.90
44190;DHT22;29856;52.144;5.430;2023-02-15T10:40:22;8.70;99.90
44190;DHT22;29856;52.144;5.430;2023-02-15T10:48:00;9.10;99.90
44190;DHT22;29856;52.144;5.430;2023-02-15T10:50:50;9.10;99.90
44190;DHT22;29856;52.144;5.430;2023-02-15T10:59:10;9.40;99.90
44190;DHT22;29856;52.144;5.430;2023-02-15T11:02:16;9.50;99.90
44190;DHT22;29856;52.144;5.430;2023-02-15T11:07:43;9.70;99.90
44190;DHT22;29856;52.144;5.430;2023-02-15T11:10:48;9.80;99.90
44190;DHT22;29856;52.144;5.430;2023-02-15T11:13:17;9.90;99.90
44190;DHT22;29856;52.144;5.430;2023-02-15T11:15:58;10.00;99.90
44190;DHT22;29856;52.144;5.430;2023-02-15T11:18:46;10.00;99.90
44190;DHT22;29856;52.144;5.430;2023-02-15T11:21:27;10.10;99.90
44190;DHT22;29856;52.144;5.430;2023-02-15T11:23:54;10.20;99.90
44190;DHT22;29856;52.144;5.430;2023-02-15T11:29:12;10.40;99.90
44190;DHT22;29856;52.144;5.430;2023-02-15T11:34:16;10.40;99.90
44190;DHT22;29856;52.144;5.430;2023-02-15T11:36:45;10.50;99.90
44190;DHT22;29856;52.144;5.430;2023-02-15T11:39:15;10.50;99.90
44190;DHT22;29856;52.144;5.430;2023-02-15T11:41:46;10.60;99.90
44190;DHT22;29856;52.144;5.430;2023-02-15T11:44:20;10.70;99.90
44190;DHT22;29856;52.144;5.430;2023-02-15T11:46:47;10.70;99.90
44190;DHT22;29856;52.144;5.430;2023-02-15T11:51:46;11.00;99.90
44190;DHT22;29856;52.144;5.430;2023-02-15T11:54:12;11.10;99.90
44190;DHT22;29856;52.144;5.430;2023-02-15T11:56:37;11.10;99.90
44190;DHT22;29856;52.144;5.430;2023-02-15T11:59:09;11.20;99.90
44190;DHT22;29856;52.144;5.430;2023-02-15T12:01:44;11.30;99.90
44190;DHT22;29856;52.144;5.430;2023-02-15T12:06:49;11.50;99.90
44190;DHT22;29856;52.144;5.430;2023-02-15T12:11:48;11.60;99.90
44190;DHT22;29856;52.144;5.430;2023-02-15T12:14:14;11.70;99.90
44190;DHT22;29856;52.144;5.430;2023-02-15T12:16:45;11.80;99.90
44190;DHT22;29856;52.144;5.430;2023-02-15T12:21:53;11.80;99.90
44190;DHT22;29856;52.144;5.430;2023-02-15T12:24:22;11.90;99.90
44190;DHT22;29856;52.144;5.430;2023-02-15T12:27:01;12.00;99.90
44190;DHT22;29856;52.144;5.430;2023-02-15T12:29:30;12.00;99.90
44190;DHT22;29856;52.144;5.430;2023-02-15T12:31:57;12.10;99.90
44190;DHT22;29856;52.144;5.430;2023-02-15T12:34:26;12.10;99.90
44190;DHT22;29856;52.144;5.430;2023-02-15T12:36:56;12.20;99.90
44190;DHT22;29856;52.144;5.430;2023-02-15T12:39:25;12.30;99.90
44190;DHT22;29856;52.144;5.430;2023-02-15T12:44:28;12.50;99.90
44190;DHT22;29856;52.144;5.430;2023-02-15T12:47:00;12.60;99.90
44190;DHT22;29856;52.144;5.430;2023-02-15T12:49:30;12.70;99.90
44190;DHT22;29856;52.144;5.430;2023-02-15T12:51:58;12.70;99.90
44190;DHT22;29856;52.144;5.430;2023-02-15T12:56:55;12.90;99.90
44190;DHT22;29856;52.144;5.430;2023-02-15T12:59:22;13.00;99.90
44190;DHT22;29856;52.144;5.430;2023-02-15T13:01:48;13.10;99.90
44190;DHT22;29856;52.144;5.430;2023-02-15T13:04:28;13.20;99.90
44190;DHT22;29856;52.144;5.430;2023-02-15T13:07:05;13.20;99.90
44190;DHT22;29856;52.144;5.430;2023-02-15T13:09:39;13.10;99.90
44190;DHT22;29856;52.144;5.430;2023-02-15T13:12:31;13.10;99.90
44190;DHT22;29856;52.144;5.430;2023-02-15T13:14:57;13.20;99.90
44190;DHT22;29856;52.144;5.430;2023-02-15T13:17:32;13.20;99.90
44190;DHT22;29856;52.144;5.430;2023-02-15T13:20:05;13.10;99.90
44190;DHT22;29856;52.144;5.430;2023-02-15T13:22:40;13.10;99.90
44190;DHT22;29856;52.144;5.430;2023-02-15T13:25:22;13.10;99.90
44190;DHT22;29856;52.144;5.430;2023-02-15T13:27:53;13.10;99.90
44190;DHT22;29856;52.144;5.430;2023-02-15T13:32:57;13.00;99.90
44190;DHT22;29856;52.144;5.430;2023-02-15T13:35:23;13.00;99.90
44190;DHT22;29856;52.144;5.430;2023-02-15T13:41:04;13.10;99.90
44190;DHT22;29856;52.144;5.430;2023-02-15T13:43:57;13.20;99.90
44190;DHT22;29856;52.144;5.430;2023-02-15T14:00:02;13.30;99.90
44190;DHT22;29856;52.144;5.430;2023-02-15T14:08:59;13.50;99.90
44190;DHT22;29856;52.144;5.430;2023-02-15T14:14:34;13.50;99.90
44190;DHT22;29856;52.144;5.430;2023-02-15T14:19:45;13.50;99.90
44190;DHT22;29856;52.144;5.430;2023-02-15T14:25:05;13.50;99.90
44190;DHT22;29856;52.144;5.430;2023-02-15T14:27:56;13.50;99.90
44190;DHT22;29856;52.144;5.430;2023-02-15T14:30:27;13.50;99.90
44190;DHT22;29856;52.144;5.430;2023-02-15T14:35:40;13.50;99.90
44190;DHT22;29856;52.144;5.430;2023-02-15T14:46:44;13.40;99.90
44190;DHT22;29856;52.144;5.430;2023-02-15T14:49:17;13.40;99.90
44190;DHT22;29856;52.144;5.430;2023-02-15T14:56:42;13.50;99.90
44190;DHT22;29856;52.144;5.430;2023-02-15T15:01:37;13.40;99.90
44190;DHT22;29856;52.144;5.430;2023-02-15T15:04:07;13.40;99.90
44190;DHT22;29856;52.144;5.430;2023-02-15T15:06:44;13.40;99.90
44190;DHT22;29856;52.144;5.430;2023-02-15T15:09:26;13.40;99.90
44190;DHT22;29856;52.144;5.430;2023-02-15T15:11:53;13.40;99.90
44190;DHT22;29856;52.144;5.430;2023-02-15T15:16:58;13.30;99.90
44190;DHT22;29856;52.144;5.430;2023-02-15T15:22:29;13.30;99.90
44190;DHT22;29856;52.144;5.430;2023-02-15T15:38:47;13.20;99.90
44190;DHT22;29856;52.144;5.430;2023-02-15T15:41:48;13.30;99.90
44190;DHT22;29856;52.144;5.430;2023-02-15T15:49:32;13.30;99.90
44190;DHT22;29856;52.144;5.430;2023-02-15T15:52:02;13.20;99.90
44190;DHT22;29856;52.144;5.430;2023-02-15T15:54:38;13.30;99.90
44190;DHT22;29856;52.144;5.430;2023-02-15T15:57:18;13.30;99.90
44190;DHT22;29856;52.144;5.430;2023-02-15T15:59:46;13.30;99.90
44190;DHT22;29856;52.144;5.430;2023-02-15T16:02:14;13.30;99.90
44190;DHT22;29856;52.144;5.430;2023-02-15T16:04:40;13.20;99.90
44190;DHT22;29856;52.144;5.430;2023-02-15T16:12:23;13.10;99.90
44190;DHT22;29856;52.144;5.430;2023-02-15T16:14:49;13.00;99.90
44190;DHT22;29856;52.144;5.430;2023-02-15T16:17:26;13.00;99.90
44190;DHT22;29856;52.144;5.430;2023-02-15T16:20:02;13.00;99.90
44190;DHT22;29856;52.144;5.430;2023-02-15T16:22:28;12.90;99.90
44190;DHT22;29856;52.144;5.430;2023-02-15T16:27:52;12.70;99.90
44190;DHT22;29856;52.144;5.430;2023-02-15T16:30:31;12.70;99.90
44190;DHT22;29856;52.144;5.430;2023-02-15T16:33:19;12.60;99.90
44190;DHT22;29856;52.144;5.430;2023-02-15T16:38:47;12.50;99.90
44190;DHT22;29856;52.144;5.430;2023-02-15T16:41:26;12.40;99.90
44190;DHT22;29856;52.144;5.430;2023-02-15T16:44:03;12.40;99.90
44190;DHT22;29856;52.144;5.430;2023-02-15T16:46:36;12.40;99.90
44190;DHT22;29856;52.144;5.430;2023-02-15T16:49:27;12.30;99.90
44190;DHT22;29856;52.144;5.430;2023-02-15T16:52:15;12.30;99.90
44190;DHT22;29856;52.144;5.430;2023-02-15T16:54:43;12.20;99.90
44190;DHT22;29856;52.144;5.430;2023-02-15T16:57:22;12.10;99.90
44190;DHT22;29856;52.144;5.430;2023-02-15T16:59:49;12.10;99.90
44190;DHT22;29856;52.144;5.430;2023-02-15T17:02:24;12.10;99.90
44190;DHT22;29856;52.144;5.430;2023-02-15T17:08:45;11.90;99.90
44190;DHT22;29856;52.144;5.430;2023-02-15T17:11:11;11.80;99.90
44190;DHT22;29856;52.144;5.430;2023-02-15T17:13:37;11.70;99.90
44190;DHT22;29856;52.144;5.430;2023-02-15T17:18:38;11.50;99.90
44190;DHT22;29856;52.144;5.430;2023-02-15T17:21:12;11.50;99.90
44190;DHT22;29856;52.144;5.430;2023-02-15T17:23:43;11.40;99.90
44190;DHT22;29856;52.144;5.430;2023-02-15T17:26:24;11.30;99.90
44190;DHT22;29856;52.144;5.430;2023-02-15T17:28:53;11.30;99.90
44190;DHT22;29856;52.144;5.430;2023-02-15T17:31:21;11.20;99.90
44190;DHT22;29856;52.144;5.430;2023-02-15T17:33:47;11.20;99.90
44190;DHT22;29856;52.144;5.430;2023-02-15T17:36:19;11.10;99.90
44190;DHT22;29856;52.144;5.430;2023-02-15T17:41:41;11.00;99.90
44190;DHT22;29856;52.144;5.430;2023-02-15T17:44:06;11.00;99.90
44190;DHT22;29856;52.144;5.430;2023-02-15T17:46:34;11.00;99.90
44190;DHT22;29856;52.144;5.430;2023-02-15T17:49:01;10.90;99.90
44190;DHT22;29856;52.144;5.430;2023-02-15T17:51:33;10.90;99.90
44190;DHT22;29856;52.144;5.430;2023-02-15T17:53:59;10.80;99.90
44190;DHT22;29856;52.144;5.430;2023-02-15T17:56:24;10.80;99.90
44190;DHT22;29856;52.144;5.430;2023-02-15T17:58:50;10.70;99.90
44190;DHT22;29856;52.144;5.430;2023-02-15T18:01:17;10.70;99.90
44190;DHT22;29856;52.144;5.430;2023-02-15T18:06:34;10.60;99.90
44190;DHT22;29856;52.144;5.430;2023-02-15T18:09:00;10.60;99.90
44190;DHT22;29856;52.144;5.430;2023-02-15T18:11:25;10.60;99.90
44190;DHT22;29856;52.144;5.430;2023-02-15T18:13:51;10.60;99.90
44190;DHT22;29856;52.144;5.430;2023-02-15T18:16:35;10.50;99.90
44190;DHT22;29856;52.144;5.430;2023-02-15T18:19:02;10.50;99.90
44190;DHT22;29856;52.144;5.430;2023-02-15T18:21:28;10.40;99.90
44190;DHT22;29856;52.144;5.430;2023-02-15T18:24:15;10.40;99.90
44190;DHT22;29856;52.144;5.430;2023-02-15T18:26:39;10.30;99.90
44190;DHT22;29856;52.144;5.430;2023-02-15T18:29:04;10.20;99.90
44190;DHT22;29856;52.144;5.430;2023-02-15T18:31:30;10.20;99.90
44190;DHT22;29856;52.144;5.430;2023-02-15T18:33:58;10.20;99.90
44190;DHT22;29856;52.144;5.430;2023-02-15T18:36:42;10.10;99.90
44190;DHT22;29856;52.144;5.430;2023-02-15T18:41:52;10.00;99.90
44190;DHT22;29856;52.144;5.430;2023-02-15T18:44:18;10.00;99.90
44190;DHT22;29856;52.144;5.430;2023-02-15T18:46:44;9.90;99.90
44190;DHT22;29856;52.144;5.430;2023-02-15T18:49:09;9.90;99.90
44190;DHT22;29856;52.144;5.430;2023-02-15T18:51:35;9.90;99.90
44190;DHT22;29856;52.144;5.430;2023-02-15T18:54:01;9.80;99.90
44190;DHT22;29856;52.144;5.430;2023-02-15T18:56:26;9.80;99.90
44190;DHT22;29856;52.144;5.430;2023-02-15T18:58:52;9.80;99.90
44190;DHT22;29856;52.144;5.430;2023-02-15T19:01:19;9.70;99.90
44190;DHT22;29856;52.144;5.430;2023-02-15T19:03:46;9.70;99.90
44190;DHT22;29856;52.144;5.430;2023-02-15T19:06:15;9.70;99.90
44190;DHT22;29856;52.144;5.430;2023-02-15T19:08:45;9.60;99.90
44190;DHT22;29856;52.144;5.430;2023-02-15T19:11:17;9.60;99.90
44190;DHT22;29856;52.144;5.430;2023-02-15T19:13:43;9.60;99.90
44190;DHT22;29856;52.144;5.430;2023-02-15T19:16:35;9.50;99.90
44190;DHT22;29856;52.144;5.430;2023-02-15T19:19:00;9.50;99.90
44190;DHT22;29856;52.144;5.430;2023-02-15T19:21:27;9.50;99.90
44190;DHT22;29856;52.144;5.430;2023-02-15T19:24:06;9.50;99.90
44190;DHT22;29856;52.144;5.430;2023-02-15T19:26:34;9.50;99.90